Etusivu
METAR-TAF:

METAR-TAF

Lentoasemat :

Shell Mera, Ecuador

Leveyspiiri: 01-30-19S, Pituuspiiri: 078-03-46W, korkeus merenpinnasta: 1056 m

Tämänhetkinen sää

Tämä raportti tehtiin 3 tuntia ja 27 minuuttia sitten, kello 23.00 UTC
Tuuli 3 kn lännestä/lounaasta
Lämpötila 21°C
Kosteus 94%
Ilmanpaine 1015 hPa
Näkyvyys: 2000 m
Pilvistä 700 ft:n korkeudessa
heikkoa sadetta

METAR: SESM 232300Z 25003KT 2000 -RA OVC007 21/20 Q1015 RMK A2999

Aika: 21:27 (02:27 UTC)


TAF: puuttuu

Säähavainnot ja -ennusteet yli 4000 lentoasemalta (METAR- ja TAF-raportit).

Käytössä olevat sääasemat on merkitty karttaan keltaisilla ja punaisilla pisteillä.

Aseta hiiri pisteen päälle nähdäksesi sääaseman nimen.

Klikkaa sitten nähdäksesi säähavainnot ja -ennusteet.

Kartan vaihtaminen: klikkaa mustalla rastilla varustettuja vihreitä pisteitä, niin voit zoomata sisään; viivalla varustettua vihreää pistettä, niin voit zoomata ulos tai vihreitä nuolia, niin pääset viereisille kartoille.


METAR-TAF: